McConnelsville, Ohio
Current Conditions -  °F | °C
As of 10:53 AM on Friday 24 Oct 2014 (Local Time) from KZZV Reporting Station
Clear Clear  
Wind Chill: 49°   Ceiling: Unl
Heat Index: 49°   Visibility: 10mi
Dew Point: 43°   Wind: 3mph
Humidity: 80%   Direction: NA
Pressure: 30.12"   Gusts: NA
Location:  39.65°N, 81.85°W
Report Text: KZZV 241453Z AUTO VRB03KT 10SM CLR 09/06 A3012 RMK AO2 SLP201 T00940061 50001
Loading
Personal Weather Stations






























Interactive Weather Map
Tropical Storm Tracking
New forecast layout! Learn more

10-Day Weather Forecast

Advertisements
Track Severe Weather on mobile